createdAt,value
2022-12-28T00:01:42.869Z,4.77
2022-12-28T00:05:43.992Z,4.40
2022-12-28T00:09:45.172Z,4.43
2022-12-28T00:13:46.356Z,5.20
2022-12-28T00:17:47.536Z,5.27
2022-12-28T00:21:48.711Z,5.07
2022-12-28T00:25:49.858Z,5.30
2022-12-28T00:29:51.041Z,4.80
2022-12-28T00:33:52.483Z,5.53
2022-12-28T00:37:53.653Z,5.90
2022-12-28T00:41:54.815Z,5.73
2022-12-28T00:45:56.028Z,5.57
2022-12-28T00:49:57.172Z,6.17
2022-12-28T00:53:58.346Z,6.00
2022-12-28T00:58:00.729Z,6.03
2022-12-28T01:02:02.230Z,6.30
2022-12-28T01:06:05.619Z,6.47
2022-12-28T01:10:07.577Z,6.07
2022-12-28T01:14:08.739Z,6.00
2022-12-28T01:18:09.917Z,5.87
2022-12-28T01:22:13.805Z,6.30
2022-12-28T01:26:15.517Z,5.80
2022-12-28T01:30:16.922Z,6.10
2022-12-28T01:34:18.095Z,5.83
2022-12-28T01:38:19.286Z,5.20
2022-12-28T01:42:20.487Z,5.30
2022-12-28T01:46:25.493Z,5.53
2022-12-28T01:50:28.014Z,5.20
2022-12-28T01:54:32.512Z,5.00
2022-12-28T01:58:34.918Z,4.33
2022-12-28T02:02:36.505Z,4.20
2022-12-28T02:06:37.968Z,4.40
2022-12-28T02:10:45.487Z,5.20
2022-12-28T02:14:44.229Z,4.60
2022-12-28T02:18:46.994Z,3.90
2022-12-28T02:23:13.414Z,3.77
2022-12-28T02:27:36.863Z,3.97
2022-12-28T02:31:41.891Z,5.03
2022-12-28T02:35:50.056Z,4.20
2022-12-28T02:39:55.049Z,4.17
2022-12-28T02:43:58.451Z,4.40
2022-12-28T02:48:17.992Z,4.30
2022-12-28T02:52:57.717Z,3.60
2022-12-28T02:57:02.687Z,4.40
2022-12-28T03:01:26.664Z,3.97
2022-12-28T03:05:53.209Z,4.60
2022-12-28T03:10:04.204Z,5.00
2022-12-28T03:14:09.201Z,4.87
2022-12-28T03:18:32.288Z,5.00
2022-12-28T03:22:55.207Z,5.50
2022-12-28T03:27:18.005Z,5.80
2022-12-28T03:31:22.760Z,5.53
2022-12-28T03:35:27.911Z,6.10
2022-12-28T03:39:32.925Z,6.50
2022-12-28T03:43:41.235Z,6.37
2022-12-28T03:47:44.329Z,6.60
2022-12-28T03:51:47.494Z,6.67
2022-12-28T03:55:48.666Z,7.70
2022-12-28T03:59:49.930Z,6.53
2022-12-28T04:03:51.112Z,6.00
2022-12-28T04:07:52.284Z,6.60
2022-12-28T04:11:53.472Z,5.57
2022-12-28T04:16:01.211Z,4.80
2022-12-28T04:20:03.819Z,4.80
2022-12-28T04:24:05.287Z,3.90
2022-12-28T04:28:06.484Z,4.70
2022-12-28T04:32:07.652Z,4.60
2022-12-28T04:36:12.416Z,4.20
2022-12-28T04:40:13.600Z,3.87
2022-12-28T04:44:14.782Z,3.07
2022-12-28T04:48:15.959Z,3.73
2022-12-28T04:52:17.143Z,3.33
2022-12-28T04:56:19.943Z,3.60
2022-12-28T05:00:21.094Z,3.50
2022-12-28T05:04:22.280Z,3.20
2022-12-28T05:08:23.452Z,3.37
2022-12-28T05:12:25.236Z,3.00
2022-12-28T05:16:28.484Z,2.60
2022-12-28T05:20:29.702Z,3.03
2022-12-28T05:24:30.884Z,2.90
2022-12-28T05:28:32.461Z,2.43
2022-12-28T05:32:33.631Z,2.57
2022-12-28T05:36:36.824Z,2.83
2022-12-28T05:40:38.007Z,3.07
2022-12-28T05:44:39.196Z,3.83
2022-12-28T05:48:42.383Z,4.00
2022-12-28T05:52:43.579Z,3.60
2022-12-28T05:56:45.502Z,3.17
2022-12-28T06:00:46.642Z,2.70
2022-12-28T06:04:47.815Z,3.13
2022-12-28T06:08:49.802Z,3.30
2022-12-28T06:12:51.163Z,3.60
2022-12-28T06:16:52.401Z,3.27
2022-12-28T06:20:57.149Z,3.60
2022-12-28T06:24:57.010Z,3.23
2022-12-28T06:28:59.122Z,3.60
2022-12-28T06:33:00.301Z,3.60
2022-12-28T06:37:02.488Z,3.67
2022-12-28T06:41:14.296Z,3.70
2022-12-28T06:45:09.149Z,3.80
2022-12-28T06:49:10.336Z,3.50
2022-12-28T06:53:11.530Z,3.20
2022-12-28T06:57:12.709Z,3.37
2022-12-28T07:01:22.959Z,3.23
2022-12-28T07:05:24.244Z,3.63
2022-12-28T07:09:25.426Z,3.07
2022-12-28T07:13:28.432Z,3.80
2022-12-28T07:17:29.572Z,3.27
2022-12-28T07:21:33.676Z,3.30
2022-12-28T07:25:35.248Z,3.47
2022-12-28T07:29:36.617Z,3.90
2022-12-28T07:33:38.205Z,3.30
2022-12-28T07:37:39.376Z,3.10
2022-12-28T07:41:40.552Z,2.93
2022-12-28T07:45:41.901Z,3.93
2022-12-28T07:49:43.272Z,3.20
2022-12-28T07:53:46.537Z,3.43
2022-12-28T07:57:47.686Z,3.47
2022-12-28T08:01:50.436Z,3.20
2022-12-28T08:05:51.635Z,2.93
2022-12-28T08:09:52.699Z,2.80
2022-12-28T08:13:55.199Z,3.57
2022-12-28T08:17:56.371Z,2.50
2022-12-28T08:21:57.555Z,2.70
2022-12-28T08:26:11.353Z,2.10
2022-12-28T08:30:13.109Z,2.83
2022-12-28T08:34:18.264Z,3.07
2022-12-28T08:38:20.019Z,2.27
2022-12-28T08:42:21.267Z,2.63
2022-12-28T08:46:29.051Z,2.90
2022-12-28T08:50:32.260Z,2.60
2022-12-28T08:54:33.431Z,2.27
2022-12-28T08:58:34.600Z,2.60
2022-12-28T09:02:35.989Z,2.00
2022-12-28T09:06:38.323Z,3.50
2022-12-28T09:10:39.478Z,2.40
2022-12-28T09:14:40.632Z,2.23
2022-12-28T09:18:44.222Z,3.00
2022-12-28T09:22:45.369Z,2.43
2022-12-28T09:26:46.550Z,3.00
2022-12-28T09:30:47.873Z,2.80
2022-12-28T09:34:49.166Z,2.40
2022-12-28T09:38:51.989Z,2.67
2022-12-28T09:42:53.197Z,2.50
2022-12-28T09:47:01.312Z,4.73
2022-12-28T09:51:02.517Z,2.73
2022-12-28T09:55:12.920Z,2.83
2022-12-28T09:59:17.787Z,2.73
2022-12-28T10:03:26.085Z,2.93
2022-12-28T10:07:27.311Z,2.67
2022-12-28T10:11:34.859Z,2.63
2022-12-28T10:15:36.214Z,2.57
2022-12-28T10:19:37.468Z,2.10
2022-12-28T10:23:56.854Z,3.10
2022-12-28T10:27:45.744Z,2.87
2022-12-28T10:31:59.742Z,2.70
2022-12-28T10:36:01.033Z,2.20
2022-12-28T10:40:09.232Z,3.53
2022-12-28T10:44:39.246Z,2.57
2022-12-28T10:48:20.842Z,3.10
2022-12-28T10:52:25.499Z,2.00
2022-12-28T10:56:32.473Z,2.27
2022-12-28T11:00:33.974Z,2.30
2022-12-28T11:04:35.127Z,1.73
2022-12-28T11:08:40.377Z,2.77
2022-12-28T11:12:44.681Z,2.30
2022-12-28T11:16:45.902Z,2.70
2022-12-28T11:20:52.822Z,2.50
2022-12-28T11:24:56.307Z,2.70
2022-12-28T11:28:59.387Z,2.33
2022-12-28T11:33:03.033Z,2.73
2022-12-28T11:37:04.209Z,2.57
2022-12-28T11:41:06.263Z,2.37
2022-12-28T11:45:16.260Z,2.50
2022-12-28T11:49:27.137Z,2.80
2022-12-28T11:53:35.112Z,2.73
2022-12-28T11:57:43.902Z,3.00
2022-12-28T12:01:45.742Z,5.60
2022-12-28T12:05:48.516Z,3.20
2022-12-28T12:10:05.744Z,2.60
2022-12-28T12:14:07.429Z,2.10
2022-12-28T12:18:18.219Z,2.60
2022-12-28T12:22:23.174Z,2.27
2022-12-28T12:26:43.504Z,2.67
2022-12-28T12:30:45.536Z,2.00
2022-12-28T12:34:56.581Z,2.23
2022-12-28T12:39:22.954Z,2.43
2022-12-28T12:43:37.149Z,2.50
2022-12-28T12:48:00.659Z,3.10
2022-12-28T12:52:23.999Z,3.77
2022-12-28T12:56:32.804Z,2.57
2022-12-28T13:00:48.475Z,2.30
2022-12-28T13:04:47.164Z,2.77
2022-12-28T13:08:57.089Z,2.30
2022-12-28T13:13:00.559Z,2.90
2022-12-28T13:17:01.686Z,2.50
2022-12-28T13:21:12.101Z,3.00
2022-12-28T13:25:24.090Z,3.63
2022-12-28T13:29:28.391Z,2.23
2022-12-28T13:33:29.982Z,2.77
2022-12-28T13:37:31.178Z,2.97
2022-12-28T13:41:35.176Z,2.60
2022-12-28T13:45:36.346Z,4.60
2022-12-28T13:50:07.152Z,2.20
2022-12-28T13:54:09.745Z,2.40
2022-12-28T13:58:17.717Z,2.57
2022-12-28T14:02:21.339Z,2.27
2022-12-28T14:06:22.565Z,4.43
2022-12-28T14:10:24.366Z,2.93
2022-12-28T14:14:25.709Z,2.67
2022-12-28T14:18:29.500Z,2.13
2022-12-28T14:22:34.010Z,2.40
2022-12-28T14:26:38.458Z,2.27
2022-12-28T14:30:42.167Z,2.20
2022-12-28T14:34:43.531Z,2.20
2022-12-28T14:38:47.591Z,2.23
2022-12-28T14:42:51.310Z,1.93
2022-12-28T14:46:53.738Z,4.03
2022-12-28T14:51:03.779Z,2.63
2022-12-28T14:55:23.962Z,3.00
2022-12-28T14:59:35.251Z,2.40
2022-12-28T15:03:55.220Z,2.47
2022-12-28T15:07:56.331Z,2.30
2022-12-28T15:12:13.392Z,2.80
2022-12-28T15:16:17.811Z,2.37
2022-12-28T15:20:19.141Z,2.20
2022-12-28T15:24:23.686Z,2.40
2022-12-28T15:28:26.430Z,2.17
2022-12-28T15:32:28.072Z,2.50
2022-12-28T15:36:29.468Z,1.50
2022-12-28T15:40:30.859Z,1.67
2022-12-28T15:44:32.046Z,1.97
2022-12-28T15:48:33.215Z,1.70
2022-12-28T15:52:34.434Z,1.20
2022-12-28T15:56:37.267Z,2.40
2022-12-28T16:00:42.838Z,2.33
2022-12-28T16:04:41.642Z,1.67
2022-12-28T16:08:42.837Z,5.23
2022-12-28T16:12:44.535Z,1.43
2022-12-28T16:16:46.267Z,1.60
2022-12-28T16:20:47.419Z,2.23
2022-12-28T16:24:48.581Z,1.37
2022-12-28T16:28:49.780Z,1.80
2022-12-28T16:32:50.947Z,1.10
2022-12-28T16:36:54.056Z,1.40
2022-12-28T16:40:56.138Z,1.50
2022-12-28T16:44:57.299Z,2.00
2022-12-28T16:49:00.201Z,1.60
2022-12-28T16:53:01.575Z,1.70
2022-12-28T16:57:02.771Z,1.10
2022-12-28T17:01:07.274Z,1.60
2022-12-28T17:05:08.877Z,1.87
2022-12-28T17:09:10.061Z,1.77
2022-12-28T17:13:11.238Z,1.70
2022-12-28T17:17:12.473Z,1.70
2022-12-28T17:21:13.677Z,1.60
2022-12-28T17:25:14.897Z,1.33
2022-12-28T17:29:16.259Z,1.80
2022-12-28T17:33:18.239Z,1.67
2022-12-28T17:37:19.434Z,1.90
2022-12-28T17:41:23.475Z,1.40
2022-12-28T17:45:24.677Z,1.73
2022-12-28T17:49:26.000Z,2.37
2022-12-28T17:53:30.813Z,1.73
2022-12-28T17:57:38.340Z,2.17
2022-12-28T18:01:35.505Z,3.03
2022-12-28T18:05:36.917Z,2.00
2022-12-28T18:09:38.109Z,2.13
2022-12-28T18:13:40.883Z,1.80
2022-12-28T18:17:42.107Z,2.20
2022-12-28T18:21:43.419Z,1.73
2022-12-28T18:25:44.652Z,2.10
2022-12-28T18:29:45.822Z,2.07
2022-12-28T18:33:47.139Z,1.90
2022-12-28T18:37:48.372Z,2.07
2022-12-28T18:41:49.572Z,1.67
2022-12-28T18:45:59.739Z,2.17
2022-12-28T18:50:01.587Z,1.67
2022-12-28T18:54:02.936Z,2.30
2022-12-28T18:58:04.092Z,1.93
2022-12-28T19:02:07.387Z,1.70
2022-12-28T19:06:08.871Z,1.80
2022-12-28T19:10:14.769Z,2.00
2022-12-28T19:14:16.028Z,1.93
2022-12-28T19:18:17.977Z,2.10
2022-12-28T19:22:19.157Z,2.00
2022-12-28T19:26:21.549Z,2.20
2022-12-28T19:30:23.414Z,2.20
2022-12-28T19:34:24.613Z,1.70
2022-12-28T19:38:26.196Z,1.97
2022-12-28T19:42:28.473Z,2.27
2022-12-28T19:46:32.683Z,2.03
2022-12-28T19:50:34.025Z,2.00
2022-12-28T19:54:38.205Z,1.67
2022-12-28T19:58:39.839Z,2.10
2022-12-28T20:02:41.092Z,1.80
2022-12-28T20:06:43.681Z,3.67
2022-12-28T20:10:44.859Z,3.40
2022-12-28T20:14:46.241Z,5.50
2022-12-28T20:18:50.065Z,3.60
2022-12-28T20:22:51.267Z,2.90
2022-12-28T20:26:57.984Z,2.00
2022-12-28T20:31:00.708Z,2.27
2022-12-28T20:35:01.935Z,2.50
2022-12-28T20:39:03.602Z,3.03
2022-12-28T20:43:22.941Z,3.10
2022-12-28T20:47:25.175Z,4.10
2022-12-28T20:51:27.533Z,3.10
2022-12-28T20:55:28.913Z,2.63
2022-12-28T20:59:30.118Z,2.87
2022-12-28T21:03:31.901Z,2.30
2022-12-28T21:07:33.051Z,2.00
2022-12-28T21:11:34.360Z,2.87
2022-12-28T21:15:40.261Z,2.10
2022-12-28T21:19:41.511Z,3.10
2022-12-28T21:23:42.984Z,1.70
2022-12-28T21:27:44.187Z,1.90
2022-12-28T21:31:45.489Z,2.20
2022-12-28T21:36:01.551Z,2.17
2022-12-28T21:40:06.312Z,2.50
2022-12-28T21:44:10.778Z,2.10
2022-12-28T21:48:11.920Z,2.40
2022-12-28T21:52:13.277Z,2.57
2022-12-28T21:56:14.433Z,2.17
2022-12-28T22:00:21.019Z,2.53
2022-12-28T22:04:41.262Z,2.60
2022-12-28T22:09:01.049Z,3.10
2022-12-28T22:13:02.205Z,2.80
2022-12-28T22:17:03.634Z,2.77
2022-12-28T22:21:05.123Z,2.93
2022-12-28T22:25:06.791Z,2.73
2022-12-28T22:29:07.985Z,2.77
2022-12-28T22:33:09.154Z,2.60
2022-12-28T22:37:12.277Z,2.30
2022-12-28T22:41:13.468Z,2.77
2022-12-28T22:45:17.355Z,2.80
2022-12-28T22:49:18.709Z,2.93
2022-12-28T22:53:19.879Z,3.00
2022-12-28T22:57:21.015Z,2.93
2022-12-28T23:01:22.286Z,2.80
2022-12-28T23:05:23.536Z,2.63
2022-12-28T23:09:24.845Z,2.63
2022-12-28T23:13:27.106Z,2.50
2022-12-28T23:17:28.462Z,2.20
2022-12-28T23:21:48.413Z,2.67
2022-12-28T23:26:08.013Z,3.03
2022-12-28T23:30:13.132Z,3.40
2022-12-28T23:34:14.181Z,2.83
2022-12-28T23:38:15.329Z,2.23
2022-12-28T23:42:16.396Z,2.50
2022-12-28T23:46:17.585Z,2.80
2022-12-28T23:50:18.897Z,3.10
2022-12-28T23:54:20.195Z,3.03
2022-12-28T23:58:21.257Z,3.20
